sensor_id;sensor_type;location;lat;lon;timestamp;P1;durP1;ratioP1;P2;durP2;ratioP2
20593;SDS011;10455;48.732;10.266;2023-05-25T00:00:59;12.93;;;6.10;;
20593;SDS011;10455;48.732;10.266;2023-05-25T00:06:01;13.33;;;6.17;;
20593;SDS011;10455;48.732;10.266;2023-05-25T00:11:04;15.57;;;6.73;;
20593;SDS011;10455;48.732;10.266;2023-05-25T00:16:08;11.43;;;6.60;;
20593;SDS011;10455;48.732;10.266;2023-05-25T00:21:10;12.30;;;6.77;;
20593;SDS011;10455;48.732;10.266;2023-05-25T00:26:13;14.07;;;7.00;;
20593;SDS011;10455;48.732;10.266;2023-05-25T00:31:16;11.40;;;6.90;;
20593;SDS011;10455;48.732;10.266;2023-05-25T00:36:19;12.83;;;6.90;;
20593;SDS011;10455;48.732;10.266;2023-05-25T00:41:21;12.83;;;6.70;;
20593;SDS011;10455;48.732;10.266;2023-05-25T00:46:25;15.23;;;6.70;;
20593;SDS011;10455;48.732;10.266;2023-05-25T00:51:28;10.63;;;6.87;;
20593;SDS011;10455;48.732;10.266;2023-05-25T00:56:34;15.80;;;6.73;;
20593;SDS011;10455;48.732;10.266;2023-05-25T01:01:41;13.10;;;7.43;;
20593;SDS011;10455;48.732;10.266;2023-05-25T01:06:45;15.50;;;7.27;;
20593;SDS011;10455;48.732;10.266;2023-05-25T01:11:50;10.90;;;7.10;;
20593;SDS011;10455;48.732;10.266;2023-05-25T01:16:54;14.73;;;7.77;;
20593;SDS011;10455;48.732;10.266;2023-05-25T01:22:01;15.47;;;7.07;;
20593;SDS011;10455;48.732;10.266;2023-05-25T01:27:11;12.20;;;7.13;;
20593;SDS011;10455;48.732;10.266;2023-05-25T01:32:16;15.23;;;6.93;;
20593;SDS011;10455;48.732;10.266;2023-05-25T01:37:19;12.60;;;7.53;;
20593;SDS011;10455;48.732;10.266;2023-05-25T01:42:23;14.17;;;7.70;;
20593;SDS011;10455;48.732;10.266;2023-05-25T01:47:27;16.27;;;7.50;;
20593;SDS011;10455;48.732;10.266;2023-05-25T01:52:40;14.97;;;7.67;;
20593;SDS011;10455;48.732;10.266;2023-05-25T01:57:49;14.47;;;8.43;;
20593;SDS011;10455;48.732;10.266;2023-05-25T02:02:57;17.97;;;8.77;;
20593;SDS011;10455;48.732;10.266;2023-05-25T02:08:01;15.70;;;8.10;;
20593;SDS011;10455;48.732;10.266;2023-05-25T02:13:03;14.27;;;8.13;;
20593;SDS011;10455;48.732;10.266;2023-05-25T02:18:05;18.83;;;8.80;;
20593;SDS011;10455;48.732;10.266;2023-05-25T02:23:09;14.90;;;8.40;;
20593;SDS011;10455;48.732;10.266;2023-05-25T02:28:10;13.80;;;9.07;;
20593;SDS011;10455;48.732;10.266;2023-05-25T02:33:12;16.93;;;9.23;;
20593;SDS011;10455;48.732;10.266;2023-05-25T02:38:15;13.90;;;8.90;;
20593;SDS011;10455;48.732;10.266;2023-05-25T02:43:17;14.50;;;9.10;;
20593;SDS011;10455;48.732;10.266;2023-05-25T02:48:19;17.73;;;9.33;;
20593;SDS011;10455;48.732;10.266;2023-05-25T02:53:23;15.23;;;8.67;;
20593;SDS011;10455;48.732;10.266;2023-05-25T02:58:25;18.43;;;9.30;;
20593;SDS011;10455;48.732;10.266;2023-05-25T03:03:27;16.37;;;9.50;;
20593;SDS011;10455;48.732;10.266;2023-05-25T03:08:30;16.03;;;9.03;;
20593;SDS011;10455;48.732;10.266;2023-05-25T03:13:32;12.47;;;8.70;;
20593;SDS011;10455;48.732;10.266;2023-05-25T03:18:34;15.23;;;9.43;;
20593;SDS011;10455;48.732;10.266;2023-05-25T03:23:37;15.93;;;9.47;;
20593;SDS011;10455;48.732;10.266;2023-05-25T03:28:39;16.50;;;9.00;;
20593;SDS011;10455;48.732;10.266;2023-05-25T03:33:41;18.50;;;10.23;;
20593;SDS011;10455;48.732;10.266;2023-05-25T03:38:44;18.50;;;10.23;;
20593;SDS011;10455;48.732;10.266;2023-05-25T03:43:46;16.03;;;9.90;;
20593;SDS011;10455;48.732;10.266;2023-05-25T03:48:48;15.87;;;9.80;;
20593;SDS011;10455;48.732;10.266;2023-05-25T03:53:51;13.40;;;10.30;;
20593;SDS011;10455;48.732;10.266;2023-05-25T03:58:53;13.70;;;9.23;;
20593;SDS011;10455;48.732;10.266;2023-05-25T04:03:55;15.60;;;9.43;;
20593;SDS011;10455;48.732;10.266;2023-05-25T04:08:58;16.40;;;8.97;;
20593;SDS011;10455;48.732;10.266;2023-05-25T04:14:00;17.10;;;9.20;;
20593;SDS011;10455;48.732;10.266;2023-05-25T04:19:02;20.03;;;10.33;;
20593;SDS011;10455;48.732;10.266;2023-05-25T04:24:06;17.27;;;9.37;;
20593;SDS011;10455;48.732;10.266;2023-05-25T04:29:08;14.17;;;8.70;;
20593;SDS011;10455;48.732;10.266;2023-05-25T04:34:10;17.33;;;8.83;;
20593;SDS011;10455;48.732;10.266;2023-05-25T04:39:15;12.30;;;8.60;;
20593;SDS011;10455;48.732;10.266;2023-05-25T04:44:17;12.03;;;7.17;;
20593;SDS011;10455;48.732;10.266;2023-05-25T04:49:20;14.70;;;7.70;;
20593;SDS011;10455;48.732;10.266;2023-05-25T04:54:23;10.77;;;7.72;;
20593;SDS011;10455;48.732;10.266;2023-05-25T04:59:25;11.32;;;7.40;;
20593;SDS011;10455;48.732;10.266;2023-05-25T05:04:26;11.95;;;7.47;;
20593;SDS011;10455;48.732;10.266;2023-05-25T05:09:30;14.18;;;8.00;;
20593;SDS011;10455;48.732;10.266;2023-05-25T05:14:32;15.67;;;9.10;;
20593;SDS011;10455;48.732;10.266;2023-05-25T05:19:34;13.20;;;8.70;;
20593;SDS011;10455;48.732;10.266;2023-05-25T05:24:38;14.17;;;9.13;;
20593;SDS011;10455;48.732;10.266;2023-05-25T05:29:39;16.13;;;9.03;;
20593;SDS011;10455;48.732;10.266;2023-05-25T05:34:42;17.67;;;8.97;;
20593;SDS011;10455;48.732;10.266;2023-05-25T05:39:46;17.30;;;8.90;;
20593;SDS011;10455;48.732;10.266;2023-05-25T05:44:48;15.27;;;8.77;;
20593;SDS011;10455;48.732;10.266;2023-05-25T05:49:50;16.03;;;8.33;;
20593;SDS011;10455;48.732;10.266;2023-05-25T05:54:53;14.63;;;8.13;;
20593;SDS011;10455;48.732;10.266;2023-05-25T05:59:55;16.30;;;8.93;;
20593;SDS011;10455;48.732;10.266;2023-05-25T06:04:57;13.97;;;8.73;;
20593;SDS011;10455;48.732;10.266;2023-05-25T06:10:01;13.17;;;8.60;;
20593;SDS011;10455;48.732;10.266;2023-05-25T06:15:04;16.57;;;8.67;;
20593;SDS011;10455;48.732;10.266;2023-05-25T06:20:07;13.93;;;8.40;;
20593;SDS011;10455;48.732;10.266;2023-05-25T06:25:10;14.23;;;8.60;;
20593;SDS011;10455;48.732;10.266;2023-05-25T06:30:13;13.30;;;8.50;;
20593;SDS011;10455;48.732;10.266;2023-05-25T06:35:15;14.03;;;8.97;;
20593;SDS011;10455;48.732;10.266;2023-05-25T06:40:20;14.40;;;8.97;;
20593;SDS011;10455;48.732;10.266;2023-05-25T06:45:22;15.67;;;8.40;;
20593;SDS011;10455;48.732;10.266;2023-05-25T06:50:24;16.42;;;9.02;;
20593;SDS011;10455;48.732;10.266;2023-05-25T06:55:27;15.50;;;8.43;;
20593;SDS011;10455;48.732;10.266;2023-05-25T07:00:29;17.05;;;8.60;;
20593;SDS011;10455;48.732;10.266;2023-05-25T07:05:31;17.80;;;8.95;;
20593;SDS011;10455;48.732;10.266;2023-05-25T07:10:34;15.05;;;8.52;;
20593;SDS011;10455;48.732;10.266;2023-05-25T07:15:36;17.13;;;8.90;;
20593;SDS011;10455;48.732;10.266;2023-05-25T07:20:38;13.65;;;8.27;;
20593;SDS011;10455;48.732;10.266;2023-05-25T07:25:42;12.90;;;8.32;;
20593;SDS011;10455;48.732;10.266;2023-05-25T07:30:44;14.73;;;8.60;;
20593;SDS011;10455;48.732;10.266;2023-05-25T07:35:46;18.90;;;8.88;;
20593;SDS011;10455;48.732;10.266;2023-05-25T07:40:49;13.35;;;9.27;;
20593;SDS011;10455;48.732;10.266;2023-05-25T07:45:51;14.57;;;9.10;;
20593;SDS011;10455;48.732;10.266;2023-05-25T07:50:53;14.02;;;9.10;;
20593;SDS011;10455;48.732;10.266;2023-05-25T07:55:57;14.43;;;8.38;;
20593;SDS011;10455;48.732;10.266;2023-05-25T08:00:58;14.30;;;8.90;;
20593;SDS011;10455;48.732;10.266;2023-05-25T08:06:00;13.73;;;8.68;;
20593;SDS011;10455;48.732;10.266;2023-05-25T08:11:03;18.33;;;8.57;;
20593;SDS011;10455;48.732;10.266;2023-05-25T08:16:05;11.52;;;8.13;;
20593;SDS011;10455;48.732;10.266;2023-05-25T08:21:07;13.65;;;7.45;;
20593;SDS011;10455;48.732;10.266;2023-05-25T08:26:10;13.90;;;8.35;;
20593;SDS011;10455;48.732;10.266;2023-05-25T08:31:12;11.55;;;7.70;;
20593;SDS011;10455;48.732;10.266;2023-05-25T08:36:14;12.05;;;7.63;;
20593;SDS011;10455;48.732;10.266;2023-05-25T08:41:18;15.88;;;8.40;;
20593;SDS011;10455;48.732;10.266;2023-05-25T08:46:26;14.13;;;8.00;;
20593;SDS011;10455;48.732;10.266;2023-05-25T08:51:31;13.98;;;8.68;;
20593;SDS011;10455;48.732;10.266;2023-05-25T08:56:40;12.57;;;8.50;;
20593;SDS011;10455;48.732;10.266;2023-05-25T09:01:47;12.38;;;7.97;;
20593;SDS011;10455;48.732;10.266;2023-05-25T09:06:53;12.00;;;8.07;;
20593;SDS011;10455;48.732;10.266;2023-05-25T09:11:57;12.25;;;8.23;;
20593;SDS011;10455;48.732;10.266;2023-05-25T09:16:59;12.45;;;8.95;;
20593;SDS011;10455;48.732;10.266;2023-05-25T09:22:01;9.15;;;7.78;;
20593;SDS011;10455;48.732;10.266;2023-05-25T09:27:05;15.10;;;9.02;;
20593;SDS011;10455;48.732;10.266;2023-05-25T09:32:07;14.38;;;9.27;;
20593;SDS011;10455;48.732;10.266;2023-05-25T09:37:12;9.65;;;7.50;;
20593;SDS011;10455;48.732;10.266;2023-05-25T09:42:17;11.00;;;7.65;;
20593;SDS011;10455;48.732;10.266;2023-05-25T09:47:19;11.27;;;7.75;;
20593;SDS011;10455;48.732;10.266;2023-05-25T09:52:21;14.05;;;8.60;;
20593;SDS011;10455;48.732;10.266;2023-05-25T09:57:24;10.02;;;7.88;;
20593;SDS011;10455;48.732;10.266;2023-05-25T10:02:28;9.77;;;7.13;;
20593;SDS011;10455;48.732;10.266;2023-05-25T10:07:30;12.70;;;7.88;;
20593;SDS011;10455;48.732;10.266;2023-05-25T10:12:34;11.55;;;7.60;;
20593;SDS011;10455;48.732;10.266;2023-05-25T10:17:39;10.13;;;7.43;;
20593;SDS011;10455;48.732;10.266;2023-05-25T10:22:46;11.30;;;7.93;;
20593;SDS011;10455;48.732;10.266;2023-05-25T10:27:56;10.07;;;7.78;;
20593;SDS011;10455;48.732;10.266;2023-05-25T10:33:00;12.88;;;8.23;;
20593;SDS011;10455;48.732;10.266;2023-05-25T10:38:03;13.77;;;8.23;;
20593;SDS011;10455;48.732;10.266;2023-05-25T10:43:07;14.13;;;8.63;;
20593;SDS011;10455;48.732;10.266;2023-05-25T10:48:09;12.45;;;8.13;;
20593;SDS011;10455;48.732;10.266;2023-05-25T10:53:12;14.38;;;8.13;;
20593;SDS011;10455;48.732;10.266;2023-05-25T10:58:17;12.88;;;8.55;;
20593;SDS011;10455;48.732;10.266;2023-05-25T11:03:19;13.38;;;8.35;;
20593;SDS011;10455;48.732;10.266;2023-05-25T11:08:21;12.48;;;8.25;;
20593;SDS011;10455;48.732;10.266;2023-05-25T11:13:35;13.85;;;8.75;;
20593;SDS011;10455;48.732;10.266;2023-05-25T11:18:39;11.60;;;7.90;;
20593;SDS011;10455;48.732;10.266;2023-05-25T11:23:55;10.98;;;8.05;;
20593;SDS011;10455;48.732;10.266;2023-05-25T11:29:00;11.95;;;8.20;;
20593;SDS011;10455;48.732;10.266;2023-05-25T11:34:03;13.45;;;7.95;;
20593;SDS011;10455;48.732;10.266;2023-05-25T11:39:05;12.25;;;7.70;;
20593;SDS011;10455;48.732;10.266;2023-05-25T11:44:08;12.40;;;7.75;;
20593;SDS011;10455;48.732;10.266;2023-05-25T11:49:12;11.70;;;6.95;;
20593;SDS011;10455;48.732;10.266;2023-05-25T11:54:19;11.82;;;6.65;;
20593;SDS011;10455;48.732;10.266;2023-05-25T11:59:24;10.88;;;6.95;;
20593;SDS011;10455;48.732;10.266;2023-05-25T12:04:27;9.95;;;6.55;;
20593;SDS011;10455;48.732;10.266;2023-05-25T12:09:29;10.63;;;6.40;;
20593;SDS011;10455;48.732;10.266;2023-05-25T12:14:33;10.35;;;6.05;;
20593;SDS011;10455;48.732;10.266;2023-05-25T12:19:40;11.20;;;5.72;;
20593;SDS011;10455;48.732;10.266;2023-05-25T12:24:42;9.23;;;6.05;;
20593;SDS011;10455;48.732;10.266;2023-05-25T12:29:46;8.90;;;5.60;;
20593;SDS011;10455;48.732;10.266;2023-05-25T12:34:48;10.10;;;5.32;;
20593;SDS011;10455;48.732;10.266;2023-05-25T12:39:50;6.90;;;5.30;;
20593;SDS011;10455;48.732;10.266;2023-05-25T12:44:56;5.38;;;4.88;;
20593;SDS011;10455;48.732;10.266;2023-05-25T12:50:09;5.28;;;4.50;;
20593;SDS011;10455;48.732;10.266;2023-05-25T12:55:19;7.95;;;5.20;;
20593;SDS011;10455;48.732;10.266;2023-05-25T13:00:26;9.40;;;5.30;;
20593;SDS011;10455;48.732;10.266;2023-05-25T13:05:31;7.00;;;5.38;;
20593;SDS011;10455;48.732;10.266;2023-05-25T13:10:35;9.07;;;5.38;;
20593;SDS011;10455;48.732;10.266;2023-05-25T13:15:39;8.30;;;5.88;;
20593;SDS011;10455;48.732;10.266;2023-05-25T13:20:41;8.45;;;5.47;;
20593;SDS011;10455;48.732;10.266;2023-05-25T13:25:43;7.25;;;5.72;;
20593;SDS011;10455;48.732;10.266;2023-05-25T13:30:47;11.32;;;6.40;;
20593;SDS011;10455;48.732;10.266;2023-05-25T13:35:49;15.88;;;7.20;;
20593;SDS011;10455;48.732;10.266;2023-05-25T13:40:58;11.30;;;5.25;;
20593;SDS011;10455;48.732;10.266;2023-05-25T13:46:01;11.95;;;6.45;;
20593;SDS011;10455;48.732;10.266;2023-05-25T13:51:03;7.85;;;5.72;;
20593;SDS011;10455;48.732;10.266;2023-05-25T13:56:05;9.00;;;5.88;;
20593;SDS011;10455;48.732;10.266;2023-05-25T14:01:08;9.63;;;5.85;;
20593;SDS011;10455;48.732;10.266;2023-05-25T14:06:10;7.70;;;5.13;;
20593;SDS011;10455;48.732;10.266;2023-05-25T14:11:12;7.60;;;4.85;;
20593;SDS011;10455;48.732;10.266;2023-05-25T14:16:15;8.18;;;5.13;;
20593;SDS011;10455;48.732;10.266;2023-05-25T14:21:17;10.27;;;5.15;;
20593;SDS011;10455;48.732;10.266;2023-05-25T14:26:19;7.63;;;5.45;;
20593;SDS011;10455;48.732;10.266;2023-05-25T14:31:22;7.80;;;5.13;;
20593;SDS011;10455;48.732;10.266;2023-05-25T14:36:24;6.72;;;5.32;;
20593;SDS011;10455;48.732;10.266;2023-05-25T14:41:26;8.98;;;6.38;;
20593;SDS011;10455;48.732;10.266;2023-05-25T14:46:29;8.90;;;5.25;;
20593;SDS011;10455;48.732;10.266;2023-05-25T14:51:33;10.68;;;5.78;;
20593;SDS011;10455;48.732;10.266;2023-05-25T14:56:36;9.02;;;5.38;;
20593;SDS011;10455;48.732;10.266;2023-05-25T15:01:39;7.93;;;5.22;;
20593;SDS011;10455;48.732;10.266;2023-05-25T15:06:41;7.65;;;5.20;;
20593;SDS011;10455;48.732;10.266;2023-05-25T15:11:42;9.63;;;5.47;;
20593;SDS011;10455;48.732;10.266;2023-05-25T15:16:46;9.05;;;5.38;;
20593;SDS011;10455;48.732;10.266;2023-05-25T15:21:47;7.03;;;4.68;;
20593;SDS011;10455;48.732;10.266;2023-05-25T15:26:49;7.78;;;4.68;;
20593;SDS011;10455;48.732;10.266;2023-05-25T15:31:53;7.43;;;4.85;;
20593;SDS011;10455;48.732;10.266;2023-05-25T15:36:54;5.88;;;4.97;;
20593;SDS011;10455;48.732;10.266;2023-05-25T15:41:56;8.55;;;5.38;;
20593;SDS011;10455;48.732;10.266;2023-05-25T15:46:59;7.80;;;4.65;;
20593;SDS011;10455;48.732;10.266;2023-05-25T15:52:01;7.35;;;5.15;;
20593;SDS011;10455;48.732;10.266;2023-05-25T15:57:04;7.05;;;4.95;;
20593;SDS011;10455;48.732;10.266;2023-05-25T16:02:07;7.88;;;5.03;;
20593;SDS011;10455;48.732;10.266;2023-05-25T16:07:09;8.32;;;5.00;;
20593;SDS011;10455;48.732;10.266;2023-05-25T16:12:13;10.45;;;4.93;;
20593;SDS011;10455;48.732;10.266;2023-05-25T16:17:16;6.78;;;4.65;;
20593;SDS011;10455;48.732;10.266;2023-05-25T16:22:18;8.18;;;5.38;;
20593;SDS011;10455;48.732;10.266;2023-05-25T16:27:20;7.93;;;5.28;;
20593;SDS011;10455;48.732;10.266;2023-05-25T16:32:23;6.30;;;4.95;;
20593;SDS011;10455;48.732;10.266;2023-05-25T16:37:26;6.43;;;4.70;;
20593;SDS011;10455;48.732;10.266;2023-05-25T16:42:28;7.15;;;5.45;;
20593;SDS011;10455;48.732;10.266;2023-05-25T16:47:31;9.82;;;5.70;;
20593;SDS011;10455;48.732;10.266;2023-05-25T16:52:33;7.10;;;5.78;;
20593;SDS011;10455;48.732;10.266;2023-05-25T16:57:35;9.00;;;5.60;;
20593;SDS011;10455;48.732;10.266;2023-05-25T17:02:38;7.55;;;5.70;;
20593;SDS011;10455;48.732;10.266;2023-05-25T17:07:40;9.68;;;6.10;;
20593;SDS011;10455;48.732;10.266;2023-05-25T17:12:42;9.52;;;5.72;;
20593;SDS011;10455;48.732;10.266;2023-05-25T17:17:45;7.60;;;5.68;;
20593;SDS011;10455;48.732;10.266;2023-05-25T17:22:47;8.10;;;5.90;;
20593;SDS011;10455;48.732;10.266;2023-05-25T17:27:48;9.25;;;6.15;;
20593;SDS011;10455;48.732;10.266;2023-05-25T17:32:52;8.35;;;5.90;;
20593;SDS011;10455;48.732;10.266;2023-05-25T17:38:00;7.30;;;5.88;;
20593;SDS011;10455;48.732;10.266;2023-05-25T17:43:02;8.48;;;6.28;;
20593;SDS011;10455;48.732;10.266;2023-05-25T17:48:05;6.72;;;5.68;;
20593;SDS011;10455;48.732;10.266;2023-05-25T17:53:07;8.90;;;6.03;;
20593;SDS011;10455;48.732;10.266;2023-05-25T17:58:08;7.80;;;5.63;;
20593;SDS011;10455;48.732;10.266;2023-05-25T18:03:12;8.18;;;5.65;;
20593;SDS011;10455;48.732;10.266;2023-05-25T18:08:13;9.68;;;5.93;;
20593;SDS011;10455;48.732;10.266;2023-05-25T18:13:15;9.23;;;5.82;;
20593;SDS011;10455;48.732;10.266;2023-05-25T18:18:18;9.20;;;5.75;;
20593;SDS011;10455;48.732;10.266;2023-05-25T18:23:23;8.60;;;6.28;;
20593;SDS011;10455;48.732;10.266;2023-05-25T18:28:25;8.43;;;6.05;;
20593;SDS011;10455;48.732;10.266;2023-05-25T18:33:28;7.35;;;6.00;;
20593;SDS011;10455;48.732;10.266;2023-05-25T18:38:30;8.48;;;6.15;;
20593;SDS011;10455;48.732;10.266;2023-05-25T18:43:32;8.65;;;6.13;;
20593;SDS011;10455;48.732;10.266;2023-05-25T18:48:35;9.77;;;6.50;;
20593;SDS011;10455;48.732;10.266;2023-05-25T18:53:37;9.30;;;6.25;;
20593;SDS011;10455;48.732;10.266;2023-05-25T18:58:40;6.82;;;6.05;;
20593;SDS011;10455;48.732;10.266;2023-05-25T19:03:43;9.55;;;6.72;;
20593;SDS011;10455;48.732;10.266;2023-05-25T19:08:45;10.23;;;7.22;;
20593;SDS011;10455;48.732;10.266;2023-05-25T19:13:48;11.40;;;7.70;;
20593;SDS011;10455;48.732;10.266;2023-05-25T19:18:51;9.45;;;7.57;;
20593;SDS011;10455;48.732;10.266;2023-05-25T19:23:53;12.68;;;7.82;;
20593;SDS011;10455;48.732;10.266;2023-05-25T19:28:56;10.38;;;8.18;;
20593;SDS011;10455;48.732;10.266;2023-05-25T19:34:00;11.35;;;8.35;;
20593;SDS011;10455;48.732;10.266;2023-05-25T19:39:02;11.30;;;8.32;;
20593;SDS011;10455;48.732;10.266;2023-05-25T19:44:03;10.60;;;8.00;;
20593;SDS011;10455;48.732;10.266;2023-05-25T19:49:07;9.63;;;8.73;;
20593;SDS011;10455;48.732;10.266;2023-05-25T19:54:09;11.87;;;9.47;;
20593;SDS011;10455;48.732;10.266;2023-05-25T19:59:10;12.80;;;9.40;;
20593;SDS011;10455;48.732;10.266;2023-05-25T20:04:14;13.77;;;9.07;;
20593;SDS011;10455;48.732;10.266;2023-05-25T20:09:15;10.20;;;9.17;;
20593;SDS011;10455;48.732;10.266;2023-05-25T20:14:17;13.17;;;10.10;;
20593;SDS011;10455;48.732;10.266;2023-05-25T20:19:21;10.67;;;9.67;;
20593;SDS011;10455;48.732;10.266;2023-05-25T20:24:22;11.87;;;10.57;;
20593;SDS011;10455;48.732;10.266;2023-05-25T20:29:24;13.07;;;9.97;;
20593;SDS011;10455;48.732;10.266;2023-05-25T20:34:28;13.33;;;10.60;;
20593;SDS011;10455;48.732;10.266;2023-05-25T20:39:29;15.30;;;11.10;;
20593;SDS011;10455;48.732;10.266;2023-05-25T20:44:31;15.23;;;10.63;;
20593;SDS011;10455;48.732;10.266;2023-05-25T20:49:34;13.37;;;11.00;;
20593;SDS011;10455;48.732;10.266;2023-05-25T20:54:36;14.40;;;11.10;;
20593;SDS011;10455;48.732;10.266;2023-05-25T20:59:43;15.50;;;11.33;;
20593;SDS011;10455;48.732;10.266;2023-05-25T21:04:46;12.43;;;11.17;;
20593;SDS011;10455;48.732;10.266;2023-05-25T21:09:48;13.37;;;11.47;;
20593;SDS011;10455;48.732;10.266;2023-05-25T21:14:50;12.57;;;10.53;;
20593;SDS011;10455;48.732;10.266;2023-05-25T21:19:53;13.23;;;11.07;;
20593;SDS011;10455;48.732;10.266;2023-05-25T21:24:55;15.47;;;11.77;;
20593;SDS011;10455;48.732;10.266;2023-05-25T21:29:57;13.37;;;11.13;;
20593;SDS011;10455;48.732;10.266;2023-05-25T21:35:00;13.57;;;11.50;;
20593;SDS011;10455;48.732;10.266;2023-05-25T21:40:02;13.83;;;11.57;;
20593;SDS011;10455;48.732;10.266;2023-05-25T21:45:06;15.37;;;12.53;;
20593;SDS011;10455;48.732;10.266;2023-05-25T21:50:09;18.47;;;13.30;;
20593;SDS011;10455;48.732;10.266;2023-05-25T21:55:11;14.83;;;13.33;;
20593;SDS011;10455;48.732;10.266;2023-05-25T22:00:14;17.07;;;13.07;;
20593;SDS011;10455;48.732;10.266;2023-05-25T22:05:17;15.90;;;13.10;;
20593;SDS011;10455;48.732;10.266;2023-05-25T22:10:19;16.47;;;13.57;;
20593;SDS011;10455;48.732;10.266;2023-05-25T22:15:21;17.00;;;13.40;;
20593;SDS011;10455;48.732;10.266;2023-05-25T22:20:25;17.47;;;14.43;;
20593;SDS011;10455;48.732;10.266;2023-05-25T22:25:26;16.27;;;13.00;;
20593;SDS011;10455;48.732;10.266;2023-05-25T22:30:28;14.03;;;12.57;;
20593;SDS011;10455;48.732;10.266;2023-05-25T22:35:31;18.03;;;14.53;;
20593;SDS011;10455;48.732;10.266;2023-05-25T22:40:33;16.40;;;13.83;;
20593;SDS011;10455;48.732;10.266;2023-05-25T22:45:35;16.27;;;13.40;;
20593;SDS011;10455;48.732;10.266;2023-05-25T22:50:39;19.33;;;14.00;;
20593;SDS011;10455;48.732;10.266;2023-05-25T22:55:41;17.40;;;13.77;;
20593;SDS011;10455;48.732;10.266;2023-05-25T23:00:43;16.93;;;13.67;;
20593;SDS011;10455;48.732;10.266;2023-05-25T23:05:46;16.80;;;13.70;;
20593;SDS011;10455;48.732;10.266;2023-05-25T23:10:48;17.13;;;14.00;;
20593;SDS011;10455;48.732;10.266;2023-05-25T23:15:50;17.90;;;14.30;;
20593;SDS011;10455;48.732;10.266;2023-05-25T23:20:55;18.60;;;14.33;;
20593;SDS011;10455;48.732;10.266;2023-05-25T23:25:57;18.37;;;14.83;;
20593;SDS011;10455;48.732;10.266;2023-05-25T23:30:59;16.73;;;13.97;;
20593;SDS011;10455;48.732;10.266;2023-05-25T23:36:02;15.83;;;14.00;;
20593;SDS011;10455;48.732;10.266;2023-05-25T23:41:04;17.17;;;14.70;;
20593;SDS011;10455;48.732;10.266;2023-05-25T23:46:06;16.53;;;14.37;;
20593;SDS011;10455;48.732;10.266;2023-05-25T23:51:09;17.87;;;14.20;;
20593;SDS011;10455;48.732;10.266;2023-05-25T23:56:11;18.30;;;15.27;;
